Time;durP1;ratioP1;P1;durP2;ratioP2;P2;SDS_P1;SDS_P2;PMS_P1;PMS_P2;Temp;Humidity;BMP_temperature;BMP_pressure;BME280_temperature;BME280_humidity;BME280_pressure;Samples;Min_cycle;Max_cycle;Signal;HPM_P1;HPM_P2
2021/03/06 00:02:11;;;;;;;0.50;0.50;;;;;;;-2.09;79.71;102585.47;5054979;28;20979;-63
2021/03/06 00:04:37;;;;;;;0.60;0.60;;;;;;;-2.05;79.60;102590.28;5055539;28;20792;-63
2021/03/06 00:07:04;;;;;;;0.40;0.33;;;;;;;-2.07;79.04;102586.16;5055651;28;20807;-63
2021/03/06 00:09:30;;;;;;;0.40;0.40;;;;;;;-2.05;78.79;102587.63;5055469;28;20796;-64
2021/03/06 00:11:56;;;;;;;0.40;0.30;;;;;;;-2.01;78.30;102585.47;5055128;28;20473;-62
2021/03/06 00:14:22;;;;;;;4.00;3.63;;;;;;;-2.04;78.11;102586.66;5055365;28;20442;-64
2021/03/06 00:16:48;;;;;;;0.40;0.40;;;;;;;-2.11;78.67;102585.66;5055301;28;20928;-64
2021/03/06 00:19:14;;;;;;;0.83;0.60;;;;;;;-2.24;78.81;102584.50;5055309;28;20449;-63
2021/03/06 00:21:40;;;;;;;0.70;0.70;;;;;;;-2.24;78.94;102587.16;5055307;28;20462;-63
2021/03/06 00:24:07;;;;;;;0.40;0.40;;;;;;;-2.21;78.92;102589.47;5055295;28;20443;-62
2021/03/06 00:26:33;;;;;;;0.50;0.50;;;;;;;-2.20;79.80;102594.63;5055089;28;20455;-64
2021/03/06 00:29:00;;;;;;;4.43;1.50;;;;;;;-2.10;79.42;102583.84;5055293;28;20442;-63
2021/03/06 00:31:26;;;;;;;0.40;0.40;;;;;;;-2.18;80.74;102587.31;5055171;28;20504;-62
2021/03/06 00:33:52;;;;;;;2.10;1.03;;;;;;;-2.29;80.17;102585.84;5055285;28;20480;-63
2021/03/06 00:36:18;;;;;;;0.40;0.40;;;;;;;-2.26;79.42;102587.31;5054598;28;20494;-63
2021/03/06 00:38:44;;;;;;;1.33;1.23;;;;;;;-2.32;80.55;102588.81;5054805;28;20970;-63
2021/03/06 00:41:10;;;;;;;0.80;0.80;;;;;;;-2.31;79.78;102589.66;5055028;28;20556;-64
2021/03/06 00:43:36;;;;;;;2.43;1.13;;;;;;;-2.38;79.52;102581.53;5054531;28;20967;-64
2021/03/06 00:46:03;;;;;;;0.93;0.93;;;;;;;-2.44;80.04;102584.00;5054847;28;20449;-63
2021/03/06 00:48:29;;;;;;;1.33;1.27;;;;;;;-2.51;80.27;102573.25;5054765;28;20445;-64
2021/03/06 00:50:55;;;;;;;0.67;0.67;;;;;;;-2.53;80.88;102572.56;5054492;28;20943;-64
2021/03/06 00:53:21;;;;;;;0.80;0.80;;;;;;;-2.52;80.63;102576.91;5054438;28;20470;-64
2021/03/06 00:55:47;;;;;;;3.10;0.80;;;;;;;-2.46;81.36;102576.22;5054594;28;20492;-63
2021/03/06 00:58:13;;;;;;;0.40;0.30;;;;;;;-2.54;80.95;102577.03;5054780;28;20449;-63
2021/03/06 01:00:39;;;;;;;0.40;0.40;;;;;;;-2.34;79.42;102577.56;5054479;28;20461;-64
2021/03/06 01:03:06;;;;;;;2.10;1.03;;;;;;;-2.23;78.74;102570.25;5054098;28;20493;-63
2021/03/06 01:05:32;;;;;;;4.07;1.80;;;;;;;-2.26;79.40;102578.53;5054102;28;20975;-63
2021/03/06 01:07:58;;;;;;;0.53;0.53;;;;;;;-2.30;81.09;102578.88;5054571;28;20445;-63
2021/03/06 01:10:29;;;;;;;0.40;0.40;;;;;;;-2.28;81.62;102568.91;5054542;28;20435;-63
2021/03/06 01:12:55;;;;;;;1.10;1.05;;;;;;;-2.24;81.84;102579.22;5053944;28;20834;-64
2021/03/06 01:15:21;;;;;;;0.40;0.30;;;;;;;-2.30;81.89;102576.22;5053654;28;20203;-64
2021/03/06 01:17:47;;;;;;;0.40;0.30;;;;;;;-2.31;82.38;102568.41;5054253;28;20492;-63
2021/03/06 01:20:15;;;;;;;0.40;0.30;;;;;;;-2.32;82.01;102566.75;5053975;28;20430;-63
2021/03/06 01:22:41;;;;;;;0.40;0.30;;;;;;;-2.29;81.70;102563.78;5054062;28;20474;-64
2021/03/06 01:25:08;;;;;;;0.40;0.40;;;;;;;-2.36;82.27;102571.56;5054143;28;20453;-63
2021/03/06 01:27:34;;;;;;;0.40;0.30;;;;;;;-2.26;81.41;102555.47;5054117;28;20206;-64
2021/03/06 01:30:00;;;;;;;0.40;0.40;;;;;;;-2.18;81.54;102557.28;5053819;28;20727;-64
2021/03/06 01:32:26;;;;;;;0.40;0.40;;;;;;;-2.21;82.00;102562.94;5053622;28;20717;-63
2021/03/06 01:34:52;;;;;;;0.43;0.43;;;;;;;-2.13;82.31;102560.28;5053626;28;20449;-64
2021/03/06 01:37:19;;;;;;;0.50;0.50;;;;;;;-2.22;80.87;102556.78;5053515;28;21025;-63
2021/03/06 01:39:45;;;;;;;0.60;0.60;;;;;;;-2.31;80.45;102555.97;5053832;28;20520;-64
2021/03/06 01:42:11;;;;;;;0.40;0.30;;;;;;;-2.29;80.35;102546.03;5053081;28;20982;-63
2021/03/06 01:44:37;;;;;;;1.00;1.00;;;;;;;-2.39;80.15;102541.88;5053844;28;20504;-64
2021/03/06 01:47:03;;;;;;;0.40;0.30;;;;;;;-2.40;79.07;102546.34;5053706;28;20442;-63
2021/03/06 01:49:29;;;;;;;1.43;1.33;;;;;;;-2.42;79.22;102544.88;5053732;28;20503;-65
2021/03/06 01:51:56;;;;;;;0.50;0.50;;;;;;;-2.46;80.14;102555.00;5053642;28;20976;-63
2021/03/06 01:54:25;;;;;;;0.70;0.70;;;;;;;-2.48;79.62;102546.34;5053629;28;20441;-63
2021/03/06 01:56:52;;;;;;;0.40;0.40;;;;;;;-2.44;79.16;102554.81;5053350;28;20838;-64
2021/03/06 01:59:18;;;;;;;0.40;0.30;;;;;;;-2.51;80.02;102554.66;5053385;28;20438;-63
2021/03/06 02:01:44;;;;;;;0.40;0.30;;;;;;;-2.66;80.37;102564.25;5053271;28;20480;-64
2021/03/06 02:04:10;;;;;;;0.40;0.40;;;;;;;-2.70;81.03;102561.13;5053456;28;20430;-63
2021/03/06 02:06:37;;;;;;;0.40;0.40;;;;;;;-2.64;80.98;102559.63;5053418;28;20442;-64
2021/03/06 02:09:03;;;;;;;0.87;0.87;;;;;;;-2.63;79.60;102555.97;5053355;28;20438;-63
2021/03/06 02:11:41;;;;;;;0.50;0.50;;;;;;;-2.66;80.51;102551.00;5052855;28;20824;-64
2021/03/06 02:14:24;;;;;;;1.55;1.45;;;;;;;-2.57;80.09;102547.34;5053494;28;20421;-63
2021/03/06 02:16:56;;;;;;;0.40;0.30;;;;;;;-2.57;79.91;102544.69;5053164;28;20243;-63
2021/03/06 02:19:45;;;;;;;0.40;0.30;;;;;;;-2.72;79.49;102549.00;5052967;28;20931;-63
2021/03/06 02:22:42;;;;;;;0.50;0.50;;;;;;;-2.62;80.82;102542.53;5052851;28;21018;-63
2021/03/06 02:25:33;;;;;;;0.40;0.40;;;;;;;-2.68;80.90;102539.75;5053103;28;20430;-63
2021/03/06 02:28:13;;;;;;;0.60;0.50;;;;;;;-2.73;82.24;102542.06;5053352;28;20184;-62
2021/03/06 02:30:41;;;;;;;0.40;0.30;;;;;;;-2.74;82.70;102537.75;5053067;28;20555;-63
2021/03/06 02:33:10;;;;;;;1.33;1.17;;;;;;;-2.62;82.89;102539.06;5052931;28;20512;-63
2021/03/06 02:35:37;;;;;;;0.50;0.50;;;;;;;-2.68;83.35;102543.22;5053278;28;20444;-64
2021/03/06 02:38:05;;;;;;;0.50;0.50;;;;;;;-2.60;83.85;102545.88;5052973;28;20232;-63
2021/03/06 02:40:32;;;;;;;0.40;0.30;;;;;;;-2.58;83.22;102543.88;5052351;28;20834;-64
2021/03/06 02:42:59;;;;;;;0.50;0.50;;;;;;;-2.68;84.12;102543.22;5052717;28;21013;-63
2021/03/06 02:45:27;;;;;;;0.50;0.50;;;;;;;-2.69;84.60;102543.38;5052981;28;20452;-63
2021/03/06 02:47:57;;;;;;;0.40;0.30;;;;;;;-2.69;84.80;102538.09;5053092;28;20435;-63
2021/03/06 02:50:23;;;;;;;0.40;0.30;;;;;;;-2.64;85.19;102541.91;5052929;28;20457;-63
2021/03/06 02:52:49;;;;;;;0.40;0.30;;;;;;;-2.60;84.43;102535.28;5052810;28;20511;-63
2021/03/06 02:55:15;;;;;;;0.67;0.67;;;;;;;-2.64;85.07;102531.28;5052797;28;20206;-65
2021/03/06 02:58:14;;;;;;;0.70;0.70;;;;;;;-2.50;84.26;102527.13;5052742;28;20569;-64
2021/03/06 03:00:42;;;;;;;0.40;0.40;;;;;;;-2.46;83.43;102522.34;5052843;28;20812;-64
2021/03/06 03:03:18;;;;;;;0.40;0.30;;;;;;;-2.56;82.49;102533.94;5052507;28;20852;-63
2021/03/06 03:05:50;;;;;;;0.40;0.30;;;;;;;-2.63;82.87;102526.81;5052895;28;20426;-64
2021/03/06 03:08:21;;;;;;;0.87;0.70;;;;;;;-2.68;81.67;102529.13;5052733;28;20415;-65
2021/03/06 03:10:51;;;;;;;0.40;0.30;;;;;;;-2.77;82.39;102519.50;5052597;28;20422;-64
2021/03/06 03:13:22;;;;;;;0.40;0.30;;;;;;;-2.84;82.42;102520.16;5052689;28;20223;-64
2021/03/06 03:15:51;;;;;;;0.80;0.77;;;;;;;-2.71;81.76;102524.16;5052384;28;20214;-64
2021/03/06 03:18:21;;;;;;;0.40;0.40;;;;;;;-2.67;81.25;102520.19;5052359;28;21004;-64
2021/03/06 03:20:51;;;;;;;0.50;0.50;;;;;;;-2.80;81.31;102524.13;5052709;28;20452;-64
2021/03/06 03:23:20;;;;;;;0.40;0.30;;;;;;;-2.80;81.63;102526.78;5052522;28;20496;-64
2021/03/06 03:25:48;;;;;;;0.50;0.50;;;;;;;-2.82;81.29;102525.31;5052636;28;20442;-63
2021/03/06 03:28:15;;;;;;;0.40;0.40;;;;;;;-2.83;82.48;102526.31;5052570;28;20853;-64
2021/03/06 03:30:42;;;;;;;0.40;0.30;;;;;;;-2.72;82.38;102525.16;5052585;28;20204;-64
2021/03/06 03:33:10;;;;;;;0.40;0.30;;;;;;;-2.85;84.32;102528.28;5052556;28;20223;-63
2021/03/06 03:35:39;;;;;;;0.40;0.30;;;;;;;-2.80;84.60;102526.78;5052483;28;20211;-63
2021/03/06 03:38:06;;;;;;;0.40;0.40;;;;;;;-2.86;83.42;102532.75;5053662;28;20536;-63
2021/03/06 03:40:33;;;;;;;0.40;0.30;;;;;;;-2.86;82.74;102538.06;5056211;28;20442;-64
2021/03/06 03:43:00;;;;;;;0.40;0.40;;;;;;;-2.90;82.27;102534.06;5055796;28;20469;-64
2021/03/06 03:45:27;;;;;;;0.40;0.30;;;;;;;-2.94;82.24;102540.69;5056005;28;20220;-63
2021/03/06 03:47:54;;;;;;;0.60;0.60;;;;;;;-2.92;81.94;102527.25;5056025;28;20219;-64
2021/03/06 03:50:21;;;;;;;0.40;0.30;;;;;;;-2.91;82.37;102529.78;5055899;28;20450;-64
2021/03/06 03:52:49;;;;;;;0.40;0.40;;;;;;;-2.87;82.41;102532.94;5055894;28;20228;-64
2021/03/06 03:55:17;;;;;;;0.40;0.40;;;;;;;-2.87;81.83;102535.59;5055983;28;20445;-64
2021/03/06 03:57:44;;;;;;;0.63;0.63;;;;;;;-2.89;81.61;102538.38;5055513;28;21010;-63
2021/03/06 04:00:13;;;;;;;0.77;0.70;;;;;;;-2.97;82.63;102548.13;5055539;28;20969;-64
2021/03/06 04:02:39;;;;;;;0.40;0.30;;;;;;;-2.98;82.55;102543.84;5075969;22;20499;-68
2021/03/06 04:05:07;;;;;;;0.40;0.30;;;;;;;-3.14;84.21;102542.81;5075661;28;20492;-68
2021/03/06 04:07:40;;;;;;;0.40;0.30;;;;;;;-3.21;83.22;102539.16;5075497;28;20451;-68
2021/03/06 04:10:09;;;;;;;0.40;0.30;;;;;;;-3.25;84.36;102536.97;5077136;28;20237;-68
2021/03/06 04:12:35;;;;;;;1.85;1.75;;;;;;;-3.24;84.11;102533.34;5083487;28;20465;-67
2021/03/06 04:15:01;;;;;;;0.40;0.40;;;;;;;-3.22;84.33;102541.97;5075792;28;20577;-68
2021/03/06 04:17:27;;;;;;;0.40;0.30;;;;;;;-3.09;83.68;102547.63;5075078;28;20487;-67
2021/03/06 04:19:53;;;;;;;0.40;0.30;;;;;;;-3.11;83.07;102539.81;5075457;28;20217;-69
2021/03/06 04:22:19;;;;;;;0.40;0.30;;;;;;;-3.23;82.93;102542.94;5075309;28;20520;-70
2021/03/06 04:24:45;;;;;;;0.70;0.70;;;;;;;-3.14;82.79;102553.41;5075336;28;20442;-70
2021/03/06 04:27:11;;;;;;;0.40;0.30;;;;;;;-3.09;83.20;102552.94;5075248;28;20433;-70
2021/03/06 04:29:37;;;;;;;0.40;0.30;;;;;;;-3.13;84.05;102551.59;5075224;28;20504;-71
2021/03/06 04:32:04;;;;;;;0.70;0.70;;;;;;;-3.15;85.21;102542.97;5075224;28;20207;-70
2021/03/06 04:34:30;;;;;;;0.40;0.30;;;;;;;-3.14;85.06;102545.47;5075042;28;20441;-71
2021/03/06 04:36:56;;;;;;;0.50;0.40;;;;;;;-3.15;85.07;102549.09;5075007;28;20894;-71
2021/03/06 04:39:21;;;;;;;1.33;0.70;;;;;;;-3.15;84.92;102551.75;5074780;28;20444;-71
2021/03/06 04:41:47;;;;;;;0.50;0.50;;;;;;;-3.07;85.15;102553.59;5075054;28;20443;-71
2021/03/06 04:44:14;;;;;;;0.40;0.30;;;;;;;-3.13;84.57;102549.78;5074506;28;20538;-71
2021/03/06 04:46:40;;;;;;;0.40;0.30;;;;;;;-3.26;85.57;102560.00;5074822;28;20440;-71
2021/03/06 04:49:06;;;;;;;0.40;0.40;;;;;;;-3.27;86.37;102553.06;5074084;28;20199;-70
2021/03/06 04:51:32;;;;;;;0.83;0.83;;;;;;;-3.18;86.24;102553.91;5074632;28;20937;-70
2021/03/06 04:53:58;;;;;;;0.40;0.30;;;;;;;-3.05;85.30;102555.09;5074819;28;20484;-70
2021/03/06 04:56:24;;;;;;;0.67;0.67;;;;;;;-3.09;85.54;102551.13;5074413;28;20672;-70
2021/03/06 04:58:51;;;;;;;0.40;0.30;;;;;;;-3.04;85.32;102558.56;5074563;28;20838;-70
2021/03/06 05:01:18;;;;;;;0.77;0.70;;;;;;;-3.20;84.32;102562.00;5074205;28;20248;-70
2021/03/06 05:03:44;;;;;;;0.40;0.40;;;;;;;-3.22;83.70;102557.88;5074187;28;20231;-70
2021/03/06 05:06:10;;;;;;;0.40;0.30;;;;;;;-3.32;83.57;102553.53;5074249;28;20200;-70
2021/03/06 05:08:36;;;;;;;0.40;0.30;;;;;;;-3.32;83.57;102564.13;5074362;28;20441;-70
2021/03/06 05:11:02;;;;;;;0.50;0.50;;;;;;;-3.41;84.18;102570.38;5074445;28;20441;-70
2021/03/06 05:13:28;;;;;;;0.40;0.30;;;;;;;-3.49;84.51;102562.41;5074231;28;20469;-70
2021/03/06 05:15:54;;;;;;;0.40;0.30;;;;;;;-3.45;84.82;102566.41;5074237;28;20227;-70
2021/03/06 05:18:20;;;;;;;0.50;0.50;;;;;;;-3.39;83.89;102568.41;5073811;28;20487;-70
2021/03/06 05:20:46;;;;;;;0.40;0.40;;;;;;;-3.32;83.68;102566.78;5073838;28;20450;-70
2021/03/06 05:23:12;;;;;;;0.40;0.30;;;;;;;-3.38;82.72;102564.75;5074021;28;20465;-71
2021/03/06 05:25:38;;;;;;;1.10;0.60;;;;;;;-3.41;83.34;102567.75;5074128;28;20445;-71
2021/03/06 05:28:05;;;;;;;0.80;0.80;;;;;;;-3.39;82.71;102571.03;5074072;28;20474;-71
2021/03/06 05:30:31;;;;;;;0.55;0.55;;;;;;;-3.50;82.92;102576.63;5074037;28;20440;-72
2021/03/06 05:32:56;;;;;;;0.40;0.30;;;;;;;-3.52;83.31;102578.59;5073954;28;20768;-71
2021/03/06 05:35:23;;;;;;;0.40;0.30;;;;;;;-3.50;83.77;102575.78;5073925;28;20446;-71
2021/03/06 05:37:49;;;;;;;0.40;0.30;;;;;;;-3.50;83.88;102573.97;5073835;28;20917;-70
2021/03/06 05:40:16;;;;;;;0.40;0.40;;;;;;;-3.45;83.57;102577.00;5074017;28;20472;-71
2021/03/06 05:42:42;;;;;;;0.40;0.30;;;;;;;-3.46;83.46;102575.31;5073702;28;20537;-70
2021/03/06 05:45:10;;;;;;;0.40;0.30;;;;;;;-3.36;83.16;102570.75;5073754;28;20209;-70
2021/03/06 05:47:36;;;;;;;0.50;0.50;;;;;;;-3.33;83.67;102572.22;5073571;28;20488;-70
2021/03/06 05:50:04;;;;;;;0.65;0.65;;;;;;;-3.31;83.98;102570.25;5073594;28;20206;-70
2021/03/06 05:52:31;;;;;;;0.40;0.30;;;;;;;-3.28;84.77;102569.09;5073212;28;20225;-70
2021/03/06 05:54:59;;;;;;;0.70;0.70;;;;;;;-3.13;85.95;102568.31;5073656;28;20199;-70
2021/03/06 05:57:26;;;;;;;1.15;1.05;;;;;;;-2.97;86.38;102579.94;5073407;28;20484;-70
2021/03/06 05:59:53;;;;;;;0.40;0.30;;;;;;;-2.84;85.92;102582.97;5073482;28;20203;-70
2021/03/06 06:02:20;;;;;;;0.40;0.38;;;;;;;-2.70;86.25;102584.13;5073018;28;20469;-70
2021/03/06 06:04:46;;;;;;;0.60;0.50;;;;;;;-2.45;87.57;102577.88;5073570;28;20183;-71
2021/03/06 06:07:16;;;;;;;0.40;0.30;;;;;;;-2.18;87.27;102573.22;5073381;28;20449;-70
2021/03/06 06:09:43;;;;;;;1.58;1.48;;;;;;;-1.96;86.86;102572.53;5073374;28;20433;-68
2021/03/06 06:12:09;;;;;;;0.40;0.30;;;;;;;-1.84;85.37;102586.28;5073339;28;20253;-69
2021/03/06 06:14:36;;;;;;;0.40;0.30;;;;;;;-1.80;84.75;102580.47;5073329;28;20448;-72
2021/03/06 06:17:05;;;;;;;0.40;0.30;;;;;;;-1.63;84.26;102567.16;5073301;28;20488;-69
2021/03/06 06:19:32;;;;;;;0.40;0.30;;;;;;;-1.43;84.32;102563.06;5072865;28;20450;-69
2021/03/06 06:22:00;;;;;;;0.40;0.30;;;;;;;-1.28;83.85;102569.34;5073130;28;20548;-69
2021/03/06 06:24:26;;;;;;;0.40;0.30;;;;;;;-1.23;83.65;102568.00;5073137;28;20452;-69
2021/03/06 06:26:54;;;;;;;0.40;0.30;;;;;;;-1.14;83.45;102575.75;5072839;28;20974;-69
2021/03/06 06:29:38;;;;;;;0.40;0.30;;;;;;;-1.07;83.56;102581.19;5073109;28;20472;-69
2021/03/06 06:32:05;;;;;;;0.40;0.40;;;;;;;-0.97;83.34;102576.50;5073131;28;20430;-69
2021/03/06 06:34:31;;;;;;;0.40;0.30;;;;;;;-0.90;82.63;102576.59;5073018;28;20441;-69
2021/03/06 06:36:58;;;;;;;0.40;0.30;;;;;;;-0.87;82.20;102579.75;5072921;28;20525;-69
2021/03/06 06:39:31;;;;;;;0.40;0.30;;;;;;;-0.87;82.75;102582.41;5074613;28;20963;-69
2021/03/06 06:41:59;;;;;;;0.40;0.40;;;;;;;-0.82;82.79;102587.19;5075034;28;20495;-70
2021/03/06 06:44:27;;;;;;;0.50;0.43;;;;;;;-0.81;82.61;102586.19;5072962;28;20551;-69
2021/03/06 06:46:53;;;;;;;0.40;0.30;;;;;;;-0.78;82.23;102592.00;5072970;28;20532;-68
2021/03/06 06:49:20;;;;;;;0.40;0.30;;;;;;;-0.73;82.88;102593.31;5072615;28;20966;-68
2021/03/06 06:52:03;;;;;;;0.57;0.57;;;;;;;-0.67;82.66;102595.25;5072847;28;20441;-69
2021/03/06 06:54:29;;;;;;;0.40;0.30;;;;;;;-0.66;82.41;102596.94;5072848;28;20433;-69
2021/03/06 06:57:07;;;;;;;0.40;0.30;;;;;;;-0.61;82.55;102599.88;5072744;28;20481;-68
2021/03/06 06:59:33;;;;;;;0.50;0.40;;;;;;;-0.59;82.05;102593.34;5072771;28;20437;-68
2021/03/06 07:02:04;;;;;;;0.40;0.30;;;;;;;-0.55;82.29;102599.97;5072763;28;20822;-69
2021/03/06 07:04:42;;;;;;;0.50;0.50;;;;;;;-0.57;82.43;102591.38;5072796;28;20426;-69
2021/03/06 07:07:11;;;;;;;0.40;0.30;;;;;;;-0.51;82.40;102600.47;5072846;28;20471;-69
2021/03/06 07:09:37;;;;;;;0.40;0.30;;;;;;;-0.44;82.02;102603.22;5072408;28;20961;-68
2021/03/06 07:12:16;;;;;;;0.40;0.40;;;;;;;-0.40;82.13;102610.72;5072439;28;20437;-69
2021/03/06 07:14:43;;;;;;;0.40;0.30;;;;;;;-0.34;82.06;102609.16;5076225;28;20463;-68
2021/03/06 07:17:09;;;;;;;0.40;0.30;;;;;;;-0.28;81.89;102606.59;5076514;28;20473;-69
2021/03/06 07:19:41;;;;;;;0.50;0.40;;;;;;;-0.19;81.97;102606.53;5076442;28;20938;-70
2021/03/06 07:22:07;;;;;;;1.43;1.13;;;;;;;-0.14;81.80;102609.47;5076526;28;20434;-70
2021/03/06 07:24:33;;;;;;;0.40;0.30;;;;;;;-0.08;81.98;102611.44;5076325;28;20452;-70
2021/03/06 07:27:01;;;;;;;0.40;0.30;;;;;;;-0.03;81.61;102614.38;5076387;28;20437;-69
2021/03/06 07:29:28;;;;;;;0.50;0.37;;;;;;;0.07;81.39;102601.63;5076258;28;20494;-69
2021/03/06 07:31:56;;;;;;;0.40;0.30;;;;;;;0.17;81.37;102612.84;5076098;28;20437;-69
2021/03/06 07:34:24;;;;;;;1.13;1.00;;;;;;;0.18;81.16;102608.38;5075852;28;20441;-69
2021/03/06 07:36:54;;;;;;;0.40;0.30;;;;;;;0.24;80.98;102605.78;5075988;28;20488;-69
2021/03/06 07:39:20;;;;;;;2.43;0.87;;;;;;;0.31;80.89;102597.06;5076110;28;20445;-68
2021/03/06 07:41:52;;;;;;;0.40;0.30;;;;;;;0.35;80.95;102595.69;5075761;28;20825;-68
2021/03/06 07:44:22;;;;;;;0.60;0.40;;;;;;;0.41;80.49;102597.63;5076114;28;20436;-69
2021/03/06 07:46:50;;;;;;;1.17;1.07;;;;;;;0.52;80.35;102591.81;5075928;28;20449;-70
2021/03/06 07:49:17;;;;;;;0.40;0.30;;;;;;;0.60;80.59;102586.41;5075946;28;20444;-69
2021/03/06 07:51:44;;;;;;;0.40;0.30;;;;;;;0.61;80.31;102590.72;5075857;28;20437;-70
2021/03/06 07:54:13;;;;;;;0.40;0.40;;;;;;;0.72;80.41;102598.25;5075797;28;20484;-69
2021/03/06 07:56:39;;;;;;;0.40;0.30;;;;;;;0.80;80.35;102594.69;5075721;28;20803;-68
2021/03/06 07:59:05;;;;;;;0.40;0.30;;;;;;;0.90;79.91;102599.72;5075810;28;20445;-68
2021/03/06 08:01:32;;;;;;;0.40;0.30;;;;;;;0.97;79.85;102589.94;5075684;28;20516;-68
2021/03/06 08:03:59;;;;;;;0.40;0.30;;;;;;;1.00;79.36;102594.91;5075210;28;20853;-68
2021/03/06 08:06:28;;;;;;;0.60;0.53;;;;;;;1.01;79.81;102592.03;5075229;28;20942;-68
2021/03/06 08:08:55;;;;;;;0.40;0.30;;;;;;;1.13;79.50;102600.38;5075602;28;20470;-68
2021/03/06 08:11:22;;;;;;;4.20;1.07;;;;;;;1.18;79.71;102603.31;5075477;28;20448;-68
2021/03/06 08:13:51;;;;;;;0.40;0.30;;;;;;;1.17;79.65;102595.50;5075230;28;20456;-68
2021/03/06 08:16:34;;;;;;;0.40;0.30;;;;;;;1.27;79.70;102596.84;5075467;28;20481;-68
2021/03/06 08:19:02;;;;;;;0.43;0.37;;;;;;;1.38;79.61;102603.53;5075453;28;20444;-68
2021/03/06 08:21:30;;;;;;;0.40;0.40;;;;;;;1.46;79.60;102615.91;5075365;28;20452;-69
2021/03/06 08:24:26;;;;;;;0.40;0.30;;;;;;;1.52;79.17;102601.81;5075201;28;20465;-68
2021/03/06 08:27:17;;;;;;;0.50;0.40;;;;;;;1.56;79.71;102604.94;5074985;28;21030;-68
2021/03/06 08:29:44;;;;;;;0.40;0.30;;;;;;;1.66;79.62;102608.94;5075179;28;20430;-68
2021/03/06 08:32:12;;;;;;;0.70;0.50;;;;;;;1.76;79.59;102609.44;5075101;28;20444;-68
2021/03/06 08:34:41;;;;;;;0.87;0.87;;;;;;;1.85;79.40;102611.97;5075105;28;20437;-69
2021/03/06 08:37:33;;;;;;;0.50;0.50;;;;;;;1.89;79.39;102608.72;5074991;28;20483;-68
2021/03/06 08:40:04;;;;;;;0.40;0.30;;;;;;;2.01;79.62;102609.84;5075125;28;20446;-68
2021/03/06 08:42:31;;;;;;;0.40;0.30;;;;;;;2.08;79.41;102609.91;5074920;28;20461;-70
2021/03/06 08:44:59;;;;;;;0.40;0.30;;;;;;;2.10;79.70;102613.22;5074977;28;20445;-69
2021/03/06 08:47:28;;;;;;;0.40;0.30;;;;;;;2.19;79.41;102617.38;5074932;28;20438;-69
2021/03/06 08:49:56;;;;;;;0.40;0.40;;;;;;;2.25;79.79;102608.56;5074831;28;20439;-69
2021/03/06 08:52:23;;;;;;;0.40;0.30;;;;;;;2.34;79.86;102603.09;5074743;28;20472;-69
2021/03/06 08:54:49;;;;;;;0.40;0.30;;;;;;;2.54;79.56;102609.38;5074744;28;20445;-69
2021/03/06 08:57:26;;;;;;;0.47;0.40;;;;;;;2.75;78.95;102609.28;5074337;28;21024;-69
2021/03/06 08:59:53;;;;;;;0.40;0.30;;;;;;;3.02;77.88;102609.41;5074620;28;20445;-69
2021/03/06 09:02:21;;;;;;;0.97;0.60;;;;;;;3.22;76.89;102614.81;5074135;28;20974;-70
2021/03/06 09:04:47;;;;;;;0.40;0.30;;;;;;;3.33;75.80;102616.91;5074665;28;20421;-69
2021/03/06 09:07:26;;;;;;;0.50;0.50;;;;;;;3.59;75.21;102612.66;5074397;28;20498;-70
2021/03/06 09:09:52;;;;;;;0.40;0.30;;;;;;;3.74;74.11;102615.94;5074591;28;20513;-70
2021/03/06 09:12:18;;;;;;;4.40;1.27;;;;;;;3.69;73.46;102599.66;5074465;28;20954;-70
2021/03/06 09:14:44;;;;;;;0.40;0.30;;;;;;;3.64;73.85;102611.00;5074420;28;20434;-70
2021/03/06 09:17:11;;;;;;;0.40;0.30;;;;;;;3.59;74.55;102613.47;5074173;28;20935;-70
2021/03/06 09:19:37;;;;;;;0.40;0.30;;;;;;;3.82;74.34;102612.25;5074364;28;20449;-70
2021/03/06 09:22:05;;;;;;;0.60;0.40;;;;;;;4.01;73.82;102611.41;5074255;28;20445;-71
2021/03/06 09:24:46;;;;;;;2.70;1.27;;;;;;;4.06;72.60;102616.97;5073649;28;20491;-71
2021/03/06 09:27:12;;;;;;;0.50;0.37;;;;;;;4.02;73.49;102613.88;5073906;28;20434;-71
2021/03/06 09:29:38;;;;;;;0.40;0.30;;;;;;;4.11;72.57;102619.84;5074183;28;20449;-70
2021/03/06 09:32:06;;;;;;;0.40;0.30;;;;;;;4.28;71.78;102623.75;5073728;28;20950;-69
2021/03/06 09:34:32;;;;;;;0.40;0.30;;;;;;;4.28;71.78;102613.03;5073831;28;20953;-71
2021/03/06 09:36:58;;;;;;;1.00;0.60;;;;;;;4.23;71.67;102606.66;5073821;28;20477;-70
2021/03/06 09:39:25;;;;;;;1.73;0.80;;;;;;;4.18;72.59;102609.97;5074120;28;20445;-69
2021/03/06 09:41:52;;;;;;;0.63;0.53;;;;;;;4.23;72.19;102612.84;5073658;28;20943;-69
2021/03/06 09:44:19;;;;;;;0.70;0.50;;;;;;;4.30;72.47;102604.78;5073847;28;20534;-70
2021/03/06 09:46:46;;;;;;;2.30;0.93;;;;;;;3.88;73.89;102604.19;5073887;28;20442;-69
2021/03/06 09:49:14;;;;;;;1.60;0.70;;;;;;;4.10;73.49;102604.81;5073839;28;20531;-69
2021/03/06 09:51:43;;;;;;;0.40;0.40;;;;;;;4.29;72.97;102603.13;5073779;28;20541;-69
2021/03/06 09:54:10;;;;;;;0.60;0.60;;;;;;;4.50;72.55;102610.94;5073457;28;20462;-69
2021/03/06 09:56:45;;;;;;;0.40;0.30;;;;;;;4.61;72.03;102609.47;5073735;28;20445;-69
2021/03/06 09:59:12;;;;;;;0.50;0.40;;;;;;;4.73;71.29;102601.56;5073397;28;20467;-69
2021/03/06 10:01:38;;;;;;;0.40;0.30;;;;;;;4.61;71.73;102612.16;5073589;28;20452;-69
2021/03/06 10:04:12;;;;;;;1.07;0.50;;;;;;;4.53;72.75;102607.00;5074467;28;20476;-69
2021/03/06 10:06:40;;;;;;;0.40;0.37;;;;;;;4.35;76.77;102607.66;5073489;28;20448;-70
2021/03/06 10:09:08;;;;;;;0.40;0.30;;;;;;;4.08;79.54;102614.09;5073547;28;20437;-69
2021/03/06 10:11:36;;;;;;;0.40;0.30;;;;;;;3.91;81.20;102611.00;5073480;28;20438;-70
2021/03/06 10:14:03;;;;;;;0.50;0.47;;;;;;;3.80;82.39;102610.56;5073489;28;20457;-69
2021/03/06 10:16:42;;;;;;;0.40;0.30;;;;;;;3.97;82.03;102596.78;5073409;28;20441;-69
2021/03/06 10:19:08;;;;;;;0.50;0.50;;;;;;;4.22;79.74;102602.31;5073354;28;20465;-70
2021/03/06 10:21:34;;;;;;;0.40;0.30;;;;;;;4.46;78.65;102600.81;5073359;28;20438;-70
2021/03/06 10:24:03;;;;;;;0.60;0.37;;;;;;;4.62;75.91;102594.19;5073242;28;20531;-68
2021/03/06 10:26:29;;;;;;;0.40;0.20;;;;;;;4.77;75.88;102600.09;5073346;28;20487;-70
2021/03/06 10:28:57;;;;;;;0.53;0.40;;;;;;;4.80;75.38;102600.53;5073336;28;20466;-72
2021/03/06 10:31:38;;;;;;;0.40;0.30;;;;;;;4.87;75.91;102610.41;5073010;28;20433;-69
2021/03/06 10:34:32;;;;;;;0.40;0.30;;;;;;;4.90;76.05;102610.78;5073261;28;20465;-70
2021/03/06 10:37:12;;;;;;;0.40;0.30;;;;;;;4.90;76.23;102616.16;5037479;28;20453;-70
2021/03/06 10:39:56;;;;;;;0.40;0.30;;;;;;;4.62;77.46;102616.47;5073228;28;20449;-70
2021/03/06 10:42:23;;;;;;;0.60;0.57;;;;;;;4.27;80.87;102619.44;5073159;28;20465;-69
2021/03/06 10:44:50;;;;;;;0.60;0.40;;;;;;;4.01;83.32;102616.78;5072809;28;20895;-70
2021/03/06 10:47:17;;;;;;;0.60;0.50;;;;;;;3.83;85.75;102619.25;5073149;28;20440;-69
2021/03/06 10:49:44;;;;;;;0.40;0.30;;;;;;;3.68;86.69;102625.63;5077271;28;20445;-69
2021/03/06 10:52:24;;;;;;;0.40;0.40;;;;;;;3.58;86.79;102614.47;5076896;28;20973;-71
2021/03/06 10:54:54;;;;;;;0.40;0.30;;;;;;;3.52;87.67;102612.63;5077218;28;20422;-70
2021/03/06 10:57:20;;;;;;;0.40;0.30;;;;;;;3.55;88.18;102609.53;5077113;28;20477;-69
2021/03/06 10:59:46;;;;;;;0.50;0.50;;;;;;;3.47;88.47;102605.19;5076782;28;20441;-70
2021/03/06 11:02:30;;;;;;;0.50;0.40;;;;;;;3.46;88.87;102606.22;5076743;28;20441;-69
2021/03/06 11:05:18;;;;;;;0.40;0.30;;;;;;;3.47;89.15;102609.72;5077068;28;20433;-69
2021/03/06 11:07:44;;;;;;;0.43;0.40;;;;;;;3.52;89.29;102604.59;5076906;28;20433;-69
2021/03/06 11:10:11;;;;;;;0.50;0.50;;;;;;;3.57;88.96;102607.47;5076529;28;20437;-69
2021/03/06 11:12:37;;;;;;;0.40;0.30;;;;;;;3.53;88.12;102608.91;5076746;28;20469;-70
2021/03/06 11:15:11;;;;;;;0.70;0.60;;;;;;;3.48;87.21;102608.69;5076881;28;20445;-69
2021/03/06 11:17:40;;;;;;;0.40;0.30;;;;;;;3.41;87.61;102605.16;5076726;28;20483;-68
2021/03/06 11:20:08;;;;;;;0.40;0.30;;;;;;;3.44;87.81;102592.19;5076520;28;20429;-70
2021/03/06 11:22:34;;;;;;;1.53;0.63;;;;;;;3.49;87.92;102604.97;5076551;28;20457;-69
2021/03/06 11:25:00;;;;;;;0.40;0.30;;;;;;;3.59;86.90;102602.75;5076361;28;20450;-69
2021/03/06 11:27:26;;;;;;;1.73;0.83;;;;;;;3.68;86.96;102600.69;5076315;28;20483;-69
2021/03/06 11:29:52;;;;;;;0.80;0.60;;;;;;;3.87;86.93;102604.41;5076260;28;20441;-69
2021/03/06 11:32:20;;;;;;;3.50;0.73;;;;;;;4.04;85.47;102598.44;5076467;28;20469;-70
2021/03/06 11:34:47;;;;;;;0.40;0.30;;;;;;;4.03;84.48;102596.78;5083483;28;20820;-70
2021/03/06 11:37:13;;;;;;;0.47;0.37;;;;;;;4.07;84.52;102593.66;5083818;28;20487;-69